sensor_id;sensor_type;location;lat;lon;timestamp;temperature;humidity
70336;SHT31;57756;47.408;18.940;2022-12-29T00:01:36;-0.79;95.54
70336;SHT31;57756;47.408;18.940;2022-12-29T00:04:03;-0.79;95.46
70336;SHT31;57756;47.408;18.940;2022-12-29T00:06:29;-0.83;95.86
70336;SHT31;57756;47.408;18.940;2022-12-29T00:08:55;-0.82;95.87
70336;SHT31;57756;47.408;18.940;2022-12-29T00:11:23;-0.77;95.90
70336;SHT31;57756;47.408;18.940;2022-12-29T00:13:49;-0.76;95.79
70336;SHT31;57756;47.408;18.940;2022-12-29T00:16:34;-0.76;95.41
70336;SHT31;57756;47.408;18.940;2022-12-29T00:19:00;-0.76;95.57
70336;SHT31;57756;47.408;18.940;2022-12-29T00:21:27;-0.72;95.54
70336;SHT31;57756;47.408;18.940;2022-12-29T00:24:19;-0.72;95.60
70336;SHT31;57756;47.408;18.940;2022-12-29T00:29:48;-0.72;95.45
70336;SHT31;57756;47.408;18.940;2022-12-29T00:32:33;-0.70;95.39
70336;SHT31;57756;47.408;18.940;2022-12-29T00:35:31;-0.70;95.91
70336;SHT31;57756;47.408;18.940;2022-12-29T00:38:02;-0.73;95.65
70336;SHT31;57756;47.408;18.940;2022-12-29T00:40:54;-0.70;95.70
70336;SHT31;57756;47.408;18.940;2022-12-29T00:43:38;-0.73;95.66
70336;SHT31;57756;47.408;18.940;2022-12-29T00:46:22;-0.75;95.58
70336;SHT31;57756;47.408;18.940;2022-12-29T00:48:48;-0.76;95.80
70336;SHT31;57756;47.408;18.940;2022-12-29T00:51:32;-0.75;95.53
70336;SHT31;57756;47.408;18.940;2022-12-29T00:53:57;-0.76;95.94
70336;SHT31;57756;47.408;18.940;2022-12-29T00:56:23;-0.76;95.83
70336;SHT31;57756;47.408;18.940;2022-12-29T00:58:48;-0.76;96.06
70336;SHT31;57756;47.408;18.940;2022-12-29T01:01:14;-0.73;95.72
70336;SHT31;57756;47.408;18.940;2022-12-29T01:03:39;-0.72;95.68
70336;SHT31;57756;47.408;18.940;2022-12-29T01:06:09;-0.72;95.44
70336;SHT31;57756;47.408;18.940;2022-12-29T01:08:35;-0.70;95.49
70336;SHT31;57756;47.408;18.940;2022-12-29T01:11:07;-0.72;95.94
70336;SHT31;57756;47.408;18.940;2022-12-29T01:13:33;-0.72;95.79
70336;SHT31;57756;47.408;18.940;2022-12-29T01:15:58;-0.70;95.87
70336;SHT31;57756;47.408;18.940;2022-12-29T01:18:24;-0.66;95.42
70336;SHT31;57756;47.408;18.940;2022-12-29T01:20:50;-0.69;95.95
70336;SHT31;57756;47.408;18.940;2022-12-29T01:23:16;-0.70;95.90
70336;SHT31;57756;47.408;18.940;2022-12-29T01:25:41;-0.72;95.88
70336;SHT31;57756;47.408;18.940;2022-12-29T01:28:07;-0.75;96.00
70336;SHT31;57756;47.408;18.940;2022-12-29T01:30:34;-0.76;95.84
70336;SHT31;57756;47.408;18.940;2022-12-29T01:33:00;-0.77;95.84
70336;SHT31;57756;47.408;18.940;2022-12-29T01:35:25;-0.77;95.46
70336;SHT31;57756;47.408;18.940;2022-12-29T01:37:51;-0.79;95.40
70336;SHT31;57756;47.408;18.940;2022-12-29T01:40:17;-0.82;95.94
70336;SHT31;57756;47.408;18.940;2022-12-29T01:42:42;-0.77;96.63
70336;SHT31;57756;47.408;18.940;2022-12-29T01:45:13;-0.75;96.13
70336;SHT31;57756;47.408;18.940;2022-12-29T01:47:43;-0.75;96.00
70336;SHT31;57756;47.408;18.940;2022-12-29T01:50:28;-0.73;95.70
70336;SHT31;57756;47.408;18.940;2022-12-29T01:53:05;-0.77;96.14
70336;SHT31;57756;47.408;18.940;2022-12-29T01:55:36;-0.82;96.35
70336;SHT31;57756;47.408;18.940;2022-12-29T01:58:04;-0.76;96.45
70336;SHT31;57756;47.408;18.940;2022-12-29T02:00:31;-0.77;96.25
70336;SHT31;57756;47.408;18.940;2022-12-29T02:02:56;-0.77;96.15
70336;SHT31;57756;47.408;18.940;2022-12-29T02:08:09;-0.86;96.06
70336;SHT31;57756;47.408;18.940;2022-12-29T02:10:36;-0.82;95.88
70336;SHT31;57756;47.408;18.940;2022-12-29T02:13:02;-0.82;96.22
70336;SHT31;57756;47.408;18.940;2022-12-29T02:21:46;-0.83;96.30
70336;SHT31;57756;47.408;18.940;2022-12-29T02:33:18;-0.86;96.21
70336;SHT31;57756;47.408;18.940;2022-12-29T02:37:58;-0.83;95.97
70336;SHT31;57756;47.408;18.940;2022-12-29T02:40:38;-0.86;95.96
70336;SHT31;57756;47.408;18.940;2022-12-29T02:45:46;-0.82;95.82
70336;SHT31;57756;47.408;18.940;2022-12-29T02:53:25;-0.90;96.14
70336;SHT31;57756;47.408;18.940;2022-12-29T02:56:10;-0.89;96.75
70336;SHT31;57756;47.408;18.940;2022-12-29T02:58:36;-0.85;97.02
70336;SHT31;57756;47.408;18.940;2022-12-29T03:01:06;-0.83;96.62
70336;SHT31;57756;47.408;18.940;2022-12-29T03:12:23;-0.76;97.12
70336;SHT31;57756;47.408;18.940;2022-12-29T03:15:07;-0.75;97.34
70336;SHT31;57756;47.408;18.940;2022-12-29T03:18:06;-0.73;97.03
70336;SHT31;57756;47.408;18.940;2022-12-29T03:20:45;-0.72;97.01
70336;SHT31;57756;47.408;18.940;2022-12-29T03:23:15;-0.70;97.40
70336;SHT31;57756;47.408;18.940;2022-12-29T03:25:46;-0.70;96.94
70336;SHT31;57756;47.408;18.940;2022-12-29T03:28:21;-0.69;96.86
70336;SHT31;57756;47.408;18.940;2022-12-29T03:30:48;-0.62;97.07
70336;SHT31;57756;47.408;18.940;2022-12-29T03:33:17;-0.61;96.90
70336;SHT31;57756;47.408;18.940;2022-12-29T03:35:45;-0.59;96.77
70336;SHT31;57756;47.408;18.940;2022-12-29T03:41:06;-0.61;96.65
70336;SHT31;57756;47.408;18.940;2022-12-29T03:43:33;-0.65;96.47
70336;SHT31;57756;47.408;18.940;2022-12-29T03:45:58;-0.61;96.60
70336;SHT31;57756;47.408;18.940;2022-12-29T03:48:24;-0.64;96.34
70336;SHT31;57756;47.408;18.940;2022-12-29T03:50:49;-0.66;96.33
70336;SHT31;57756;47.408;18.940;2022-12-29T03:53:15;-0.70;96.32
70336;SHT31;57756;47.408;18.940;2022-12-29T03:55:41;-0.69;96.51
70336;SHT31;57756;47.408;18.940;2022-12-29T03:58:06;-0.68;96.56
70336;SHT31;57756;47.408;18.940;2022-12-29T04:00:32;-0.66;96.67
70336;SHT31;57756;47.408;18.940;2022-12-29T04:02:57;-0.65;96.87
70336;SHT31;57756;47.408;18.940;2022-12-29T04:05:23;-0.64;97.03
70336;SHT31;57756;47.408;18.940;2022-12-29T04:07:48;-0.68;96.69
70336;SHT31;57756;47.408;18.940;2022-12-29T04:10:14;-0.59;96.83
70336;SHT31;57756;47.408;18.940;2022-12-29T04:12:39;-0.61;97.03
70336;SHT31;57756;47.408;18.940;2022-12-29T04:15:07;-0.62;96.80
70336;SHT31;57756;47.408;18.940;2022-12-29T04:17:33;-0.58;96.67
70336;SHT31;57756;47.408;18.940;2022-12-29T04:19:59;-0.55;96.71
70336;SHT31;57756;47.408;18.940;2022-12-29T04:22:43;-0.58;96.53
70336;SHT31;57756;47.408;18.940;2022-12-29T04:25:08;-0.61;96.41
70336;SHT31;57756;47.408;18.940;2022-12-29T04:27:34;-0.54;96.60
70336;SHT31;57756;47.408;18.940;2022-12-29T04:29:59;-0.55;96.52
70336;SHT31;57756;47.408;18.940;2022-12-29T04:32:25;-0.55;96.61
70336;SHT31;57756;47.408;18.940;2022-12-29T04:34:50;-0.58;96.71
70336;SHT31;57756;47.408;18.940;2022-12-29T04:37:16;-0.54;96.86
70336;SHT31;57756;47.408;18.940;2022-12-29T04:39:42;-0.49;96.77
70336;SHT31;57756;47.408;18.940;2022-12-29T04:42:07;-0.48;96.82
70336;SHT31;57756;47.408;18.940;2022-12-29T04:44:33;-0.35;96.52
70336;SHT31;57756;47.408;18.940;2022-12-29T04:46:58;-0.27;96.43
70336;SHT31;57756;47.408;18.940;2022-12-29T04:49:24;-0.21;95.96
70336;SHT31;57756;47.408;18.940;2022-12-29T04:51:49;-0.24;96.03
70336;SHT31;57756;47.408;18.940;2022-12-29T04:54:15;-0.21;96.22
70336;SHT31;57756;47.408;18.940;2022-12-29T04:56:40;-0.20;95.99
70336;SHT31;57756;47.408;18.940;2022-12-29T04:59:06;-0.22;96.06
70336;SHT31;57756;47.408;18.940;2022-12-29T05:01:32;-0.21;96.19
70336;SHT31;57756;47.408;18.940;2022-12-29T05:03:57;-0.15;95.99
70336;SHT31;57756;47.408;18.940;2022-12-29T05:06:23;-0.14;95.85
70336;SHT31;57756;47.408;18.940;2022-12-29T05:08:48;-0.20;95.94
70336;SHT31;57756;47.408;18.940;2022-12-29T05:11:14;-0.10;95.78
70336;SHT31;57756;47.408;18.940;2022-12-29T05:13:39;-0.17;95.96
70336;SHT31;57756;47.408;18.940;2022-12-29T05:16:05;-0.14;96.00
70336;SHT31;57756;47.408;18.940;2022-12-29T05:18:30;-0.15;95.82
70336;SHT31;57756;47.408;18.940;2022-12-29T05:20:56;-0.17;95.93
70336;SHT31;57756;47.408;18.940;2022-12-29T05:23:21;-0.18;95.83
70336;SHT31;57756;47.408;18.940;2022-12-29T05:25:47;-0.21;95.84
70336;SHT31;57756;47.408;18.940;2022-12-29T05:28:12;-0.22;96.00
70336;SHT31;57756;47.408;18.940;2022-12-29T05:30:38;-0.24;96.04
70336;SHT31;57756;47.408;18.940;2022-12-29T05:33:04;-0.21;95.91
70336;SHT31;57756;47.408;18.940;2022-12-29T05:35:32;-0.20;95.74
70336;SHT31;57756;47.408;18.940;2022-12-29T05:37:58;-0.18;95.75
70336;SHT31;57756;47.408;18.940;2022-12-29T05:40:23;-0.14;95.48
70336;SHT31;57756;47.408;18.940;2022-12-29T05:42:49;-0.18;95.63
70336;SHT31;57756;47.408;18.940;2022-12-29T05:45:14;-0.28;95.96
70336;SHT31;57756;47.408;18.940;2022-12-29T05:47:40;-0.29;96.15
70336;SHT31;57756;47.408;18.940;2022-12-29T05:50:05;-0.28;96.05
70336;SHT31;57756;47.408;18.940;2022-12-29T05:52:31;-0.25;95.81
70336;SHT31;57756;47.408;18.940;2022-12-29T05:54:56;-0.24;95.71
70336;SHT31;57756;47.408;18.940;2022-12-29T05:57:22;-0.29;95.67
70336;SHT31;57756;47.408;18.940;2022-12-29T05:59:47;-0.32;95.92
70336;SHT31;57756;47.408;18.940;2022-12-29T06:02:13;-0.31;95.83
70336;SHT31;57756;47.408;18.940;2022-12-29T06:04:38;-0.32;96.04
70336;SHT31;57756;47.408;18.940;2022-12-29T06:07:04;-0.27;95.73
70336;SHT31;57756;47.408;18.940;2022-12-29T06:09:29;-0.29;95.67
70336;SHT31;57756;47.408;18.940;2022-12-29T06:11:55;-0.22;95.73
70336;SHT31;57756;47.408;18.940;2022-12-29T06:14:20;-0.25;95.83
70336;SHT31;57756;47.408;18.940;2022-12-29T06:16:46;-0.25;95.77
70336;SHT31;57756;47.408;18.940;2022-12-29T06:19:11;-0.22;95.73
70336;SHT31;57756;47.408;18.940;2022-12-29T06:21:37;-0.24;95.73
70336;SHT31;57756;47.408;18.940;2022-12-29T06:24:03;-0.21;95.83
70336;SHT31;57756;47.408;18.940;2022-12-29T06:26:29;-0.25;95.78
70336;SHT31;57756;47.408;18.940;2022-12-29T06:28:55;-0.22;95.80
70336;SHT31;57756;47.408;18.940;2022-12-29T06:31:20;-0.27;95.73
70336;SHT31;57756;47.408;18.940;2022-12-29T06:33:46;-0.25;95.91
70336;SHT31;57756;47.408;18.940;2022-12-29T06:36:11;-0.29;95.73
70336;SHT31;57756;47.408;18.940;2022-12-29T06:38:37;-0.29;95.94
70336;SHT31;57756;47.408;18.940;2022-12-29T06:41:02;-0.28;95.93
70336;SHT31;57756;47.408;18.940;2022-12-29T06:43:28;-0.29;95.79
70336;SHT31;57756;47.408;18.940;2022-12-29T06:45:55;-0.27;95.82
70336;SHT31;57756;47.408;18.940;2022-12-29T06:48:21;-0.27;95.81
70336;SHT31;57756;47.408;18.940;2022-12-29T06:50:46;-0.29;95.86
70336;SHT31;57756;47.408;18.940;2022-12-29T06:53:11;-0.27;95.87
70336;SHT31;57756;47.408;18.940;2022-12-29T06:55:37;-0.21;95.70
70336;SHT31;57756;47.408;18.940;2022-12-29T06:58:03;-0.21;95.80
70336;SHT31;57756;47.408;18.940;2022-12-29T07:00:28;-0.13;95.59
70336;SHT31;57756;47.408;18.940;2022-12-29T07:02:55;-0.09;95.48
70336;SHT31;57756;47.408;18.940;2022-12-29T07:05:21;-0.04;95.68
70336;SHT31;57756;47.408;18.940;2022-12-29T07:07:46;0.00;95.44
70336;SHT31;57756;47.408;18.940;2022-12-29T07:10:12;0.11;95.13
70336;SHT31;57756;47.408;18.940;2022-12-29T07:12:38;0.13;94.94
70336;SHT31;57756;47.408;18.940;2022-12-29T07:15:03;0.24;94.80
70336;SHT31;57756;47.408;18.940;2022-12-29T07:17:29;0.31;94.94
70336;SHT31;57756;47.408;18.940;2022-12-29T07:19:54;0.38;94.76
70336;SHT31;57756;47.408;18.940;2022-12-29T07:22:20;0.47;94.47
70336;SHT31;57756;47.408;18.940;2022-12-29T07:24:46;0.57;94.46
70336;SHT31;57756;47.408;18.940;2022-12-29T07:27:11;0.65;94.06
70336;SHT31;57756;47.408;18.940;2022-12-29T07:29:37;0.73;93.74
70336;SHT31;57756;47.408;18.940;2022-12-29T07:32:03;0.77;93.38
70336;SHT31;57756;47.408;18.940;2022-12-29T07:34:29;0.86;93.50
70336;SHT31;57756;47.408;18.940;2022-12-29T07:36:55;0.97;93.07
70336;SHT31;57756;47.408;18.940;2022-12-29T07:39:20;1.13;93.15
70336;SHT31;57756;47.408;18.940;2022-12-29T07:41:46;1.20;92.21
70336;SHT31;57756;47.408;18.940;2022-12-29T07:44:11;1.24;92.01
70336;SHT31;57756;47.408;18.940;2022-12-29T07:46:37;1.34;91.55
70336;SHT31;57756;47.408;18.940;2022-12-29T07:49:03;1.41;91.85
70336;SHT31;57756;47.408;18.940;2022-12-29T07:51:28;1.47;91.46
70336;SHT31;57756;47.408;18.940;2022-12-29T07:53:54;1.48;90.85
70336;SHT31;57756;47.408;18.940;2022-12-29T07:56:19;1.61;90.93
70336;SHT31;57756;47.408;18.940;2022-12-29T07:58:45;1.66;91.04
70336;SHT31;57756;47.408;18.940;2022-12-29T08:01:10;1.61;90.74
70336;SHT31;57756;47.408;18.940;2022-12-29T08:03:36;1.66;90.63
70336;SHT31;57756;47.408;18.940;2022-12-29T08:06:01;1.69;90.57
70336;SHT31;57756;47.408;18.940;2022-12-29T08:08:27;1.56;90.52
70336;SHT31;57756;47.408;18.940;2022-12-29T08:10:52;1.59;90.99
70336;SHT31;57756;47.408;18.940;2022-12-29T08:13:18;1.48;91.10
70336;SHT31;57756;47.408;18.940;2022-12-29T08:15:43;1.63;91.33
70336;SHT31;57756;47.408;18.940;2022-12-29T08:18:09;1.54;90.94
70336;SHT31;57756;47.408;18.940;2022-12-29T08:20:34;1.40;91.33
70336;SHT31;57756;47.408;18.940;2022-12-29T08:23:00;1.34;91.41
70336;SHT31;57756;47.408;18.940;2022-12-29T08:25:25;1.31;91.75
70336;SHT31;57756;47.408;18.940;2022-12-29T08:27:51;1.28;92.01
70336;SHT31;57756;47.408;18.940;2022-12-29T08:30:16;1.27;91.88
70336;SHT31;57756;47.408;18.940;2022-12-29T08:32:42;1.24;91.87
70336;SHT31;57756;47.408;18.940;2022-12-29T08:35:08;1.27;92.10
70336;SHT31;57756;47.408;18.940;2022-12-29T08:37:34;1.30;91.71
70336;SHT31;57756;47.408;18.940;2022-12-29T08:39:59;1.45;91.87
70336;SHT31;57756;47.408;18.940;2022-12-29T08:42:29;1.52;90.97
70336;SHT31;57756;47.408;18.940;2022-12-29T08:44:57;1.52;91.28
70336;SHT31;57756;47.408;18.940;2022-12-29T08:47:22;1.48;91.31
70336;SHT31;57756;47.408;18.940;2022-12-29T08:49:47;1.48;91.53
70336;SHT31;57756;47.408;18.940;2022-12-29T08:52:13;1.52;91.81
70336;SHT31;57756;47.408;18.940;2022-12-29T08:54:38;1.44;91.70
70336;SHT31;57756;47.408;18.940;2022-12-29T08:57:04;1.43;92.17
70336;SHT31;57756;47.408;18.940;2022-12-29T08:59:29;1.50;91.66
70336;SHT31;57756;47.408;18.940;2022-12-29T09:01:55;1.73;91.93
70336;SHT31;57756;47.408;18.940;2022-12-29T09:04:20;2.28;89.72
70336;SHT31;57756;47.408;18.940;2022-12-29T09:06:46;2.34;89.60
70336;SHT31;57756;47.408;18.940;2022-12-29T09:09:12;2.52;88.73
70336;SHT31;57756;47.408;18.940;2022-12-29T09:11:37;2.31;88.90
70336;SHT31;57756;47.408;18.940;2022-12-29T09:14:03;2.47;88.50
70336;SHT31;57756;47.408;18.940;2022-12-29T09:16:28;2.66;87.93
70336;SHT31;57756;47.408;18.940;2022-12-29T09:18:54;2.86;87.49
70336;SHT31;57756;47.408;18.940;2022-12-29T09:21:19;2.76;87.59
70336;SHT31;57756;47.408;18.940;2022-12-29T09:23:45;2.55;88.42
70336;SHT31;57756;47.408;18.940;2022-12-29T09:26:10;2.41;87.91
70336;SHT31;57756;47.408;18.940;2022-12-29T09:28:36;2.40;88.25
70336;SHT31;57756;47.408;18.940;2022-12-29T09:31:02;2.38;89.17
70336;SHT31;57756;47.408;18.940;2022-12-29T09:33:27;2.20;89.09
70336;SHT31;57756;47.408;18.940;2022-12-29T09:35:55;2.21;89.14
70336;SHT31;57756;47.408;18.940;2022-12-29T09:38:21;2.17;89.62
70336;SHT31;57756;47.408;18.940;2022-12-29T09:40:53;2.09;89.40
70336;SHT31;57756;47.408;18.940;2022-12-29T09:46:08;2.11;89.79
70336;SHT31;57756;47.408;18.940;2022-12-29T09:48:41;1.98;89.99
70336;SHT31;57756;47.408;18.940;2022-12-29T09:51:11;2.07;89.64
70336;SHT31;57756;47.408;18.940;2022-12-29T09:53:41;2.16;90.60
70336;SHT31;57756;47.408;18.940;2022-12-29T09:56:21;2.30;90.12
70336;SHT31;57756;47.408;18.940;2022-12-29T09:59:11;2.28;89.32
70336;SHT31;57756;47.408;18.940;2022-12-29T10:01:46;2.21;89.57
70336;SHT31;57756;47.408;18.940;2022-12-29T10:04:14;2.17;90.11
70336;SHT31;57756;47.408;18.940;2022-12-29T10:10:27;2.26;89.36
70336;SHT31;57756;47.408;18.940;2022-12-29T10:15:52;2.16;89.55
70336;SHT31;57756;47.408;18.940;2022-12-29T10:23:50;2.75;88.31
70336;SHT31;57756;47.408;18.940;2022-12-29T10:26:31;3.10;87.31
70336;SHT31;57756;47.408;18.940;2022-12-29T10:29:04;3.26;86.48
70336;SHT31;57756;47.408;18.940;2022-12-29T10:31:42;3.62;85.90
70336;SHT31;57756;47.408;18.940;2022-12-29T10:34:51;3.65;85.03
70336;SHT31;57756;47.408;18.940;2022-12-29T10:37:17;4.01;83.92
70336;SHT31;57756;47.408;18.940;2022-12-29T10:39:53;4.03;83.84
70336;SHT31;57756;47.408;18.940;2022-12-29T10:42:48;4.40;82.94
70336;SHT31;57756;47.408;18.940;2022-12-29T10:45:16;4.16;82.51
70336;SHT31;57756;47.408;18.940;2022-12-29T10:48:03;4.67;82.53
70336;SHT31;57756;47.408;18.940;2022-12-29T10:50:30;4.77;81.41
70336;SHT31;57756;47.408;18.940;2022-12-29T10:52:59;4.78;81.56
70336;SHT31;57756;47.408;18.940;2022-12-29T10:55:29;4.65;81.88
70336;SHT31;57756;47.408;18.940;2022-12-29T10:58:00;4.84;81.74
70336;SHT31;57756;47.408;18.940;2022-12-29T11:00:31;5.32;81.08
70336;SHT31;57756;47.408;18.940;2022-12-29T11:06:11;4.60;82.01
70336;SHT31;57756;47.408;18.940;2022-12-29T11:08:40;4.58;83.32
70336;SHT31;57756;47.408;18.940;2022-12-29T11:11:09;4.33;83.66
70336;SHT31;57756;47.408;18.940;2022-12-29T11:13:59;4.07;84.15
70336;SHT31;57756;47.408;18.940;2022-12-29T11:16:30;3.96;84.89
70336;SHT31;57756;47.408;18.940;2022-12-29T11:18:56;3.96;85.50
70336;SHT31;57756;47.408;18.940;2022-12-29T11:21:36;3.88;85.64
70336;SHT31;57756;47.408;18.940;2022-12-29T11:26:44;3.64;85.99
70336;SHT31;57756;47.408;18.940;2022-12-29T11:31:51;3.72;86.18
70336;SHT31;57756;47.408;18.940;2022-12-29T11:34:26;3.70;86.25
70336;SHT31;57756;47.408;18.940;2022-12-29T11:36:54;3.65;86.07
70336;SHT31;57756;47.408;18.940;2022-12-29T11:39:28;3.70;86.56
70336;SHT31;57756;47.408;18.940;2022-12-29T11:41:54;3.62;86.65
70336;SHT31;57756;47.408;18.940;2022-12-29T11:44:19;3.65;86.37
70336;SHT31;57756;47.408;18.940;2022-12-29T11:46:48;3.72;86.59
70336;SHT31;57756;47.408;18.940;2022-12-29T11:49:20;3.81;86.52
70336;SHT31;57756;47.408;18.940;2022-12-29T11:51:47;3.85;86.40
70336;SHT31;57756;47.408;18.940;2022-12-29T11:54:22;3.88;86.26
70336;SHT31;57756;47.408;18.940;2022-12-29T11:56:49;3.89;86.36
70336;SHT31;57756;47.408;18.940;2022-12-29T12:02:00;3.74;86.06
70336;SHT31;57756;47.408;18.940;2022-12-29T12:04:35;3.74;86.23
70336;SHT31;57756;47.408;18.940;2022-12-29T12:10:01;3.81;87.13
70336;SHT31;57756;47.408;18.940;2022-12-29T12:12:32;3.77;86.43
70336;SHT31;57756;47.408;18.940;2022-12-29T12:15:01;3.77;86.46
70336;SHT31;57756;47.408;18.940;2022-12-29T12:18:48;3.71;86.70
70336;SHT31;57756;47.408;18.940;2022-12-29T12:20:57;3.79;86.51
70336;SHT31;57756;47.408;18.940;2022-12-29T12:23:44;3.79;86.89
70336;SHT31;57756;47.408;18.940;2022-12-29T12:26:19;3.83;86.39
70336;SHT31;57756;47.408;18.940;2022-12-29T12:34:04;3.75;87.24
70336;SHT31;57756;47.408;18.940;2022-12-29T12:45:23;3.86;87.26
70336;SHT31;57756;47.408;18.940;2022-12-29T12:50:46;3.83;86.84
70336;SHT31;57756;47.408;18.940;2022-12-29T12:53:35;3.96;86.84
70336;SHT31;57756;47.408;18.940;2022-12-29T13:01:41;3.83;87.16
70336;SHT31;57756;47.408;18.940;2022-12-29T13:13:23;3.83;87.62
70336;SHT31;57756;47.408;18.940;2022-12-29T13:24:40;3.88;87.51
70336;SHT31;57756;47.408;18.940;2022-12-29T13:27:26;3.89;87.79
70336;SHT31;57756;47.408;18.940;2022-12-29T13:30:04;3.88;87.55
70336;SHT31;57756;47.408;18.940;2022-12-29T13:40:56;3.86;87.75
70336;SHT31;57756;47.408;18.940;2022-12-29T13:43:25;3.81;87.72
70336;SHT31;57756;47.408;18.940;2022-12-29T13:46:14;3.79;88.03
70336;SHT31;57756;47.408;18.940;2022-12-29T13:49:08;3.72;88.60
70336;SHT31;57756;47.408;18.940;2022-12-29T13:52:27;3.81;87.98
70336;SHT31;57756;47.408;18.940;2022-12-29T13:54:59;3.79;88.31
70336;SHT31;57756;47.408;18.940;2022-12-29T13:57:35;3.77;88.48
70336;SHT31;57756;47.408;18.940;2022-12-29T14:05:31;3.71;88.86
70336;SHT31;57756;47.408;18.940;2022-12-29T14:08:02;3.67;88.87
70336;SHT31;57756;47.408;18.940;2022-12-29T14:10:33;3.68;88.91
70336;SHT31;57756;47.408;18.940;2022-12-29T14:13:14;3.60;89.04
70336;SHT31;57756;47.408;18.940;2022-12-29T14:15:43;3.48;89.51
70336;SHT31;57756;47.408;18.940;2022-12-29T14:18:24;3.54;89.37
70336;SHT31;57756;47.408;18.940;2022-12-29T14:20:58;3.51;89.24
70336;SHT31;57756;47.408;18.940;2022-12-29T14:23:48;3.51;89.18
70336;SHT31;57756;47.408;18.940;2022-12-29T14:28:55;3.38;89.60
70336;SHT31;57756;47.408;18.940;2022-12-29T14:39:39;3.17;90.24
70336;SHT31;57756;47.408;18.940;2022-12-29T14:44:53;2.89;91.15
70336;SHT31;57756;47.408;18.940;2022-12-29T14:49:54;2.68;91.42
70336;SHT31;57756;47.408;18.940;2022-12-29T14:52:24;2.58;92.24
70336;SHT31;57756;47.408;18.940;2022-12-29T14:57:39;2.61;92.15
70336;SHT31;57756;47.408;18.940;2022-12-29T15:02:40;2.44;92.35
70336;SHT31;57756;47.408;18.940;2022-12-29T15:05:27;2.36;92.49
70336;SHT31;57756;47.408;18.940;2022-12-29T15:07:55;2.34;92.94
70336;SHT31;57756;47.408;18.940;2022-12-29T15:10:22;2.30;92.95
70336;SHT31;57756;47.408;18.940;2022-12-29T15:12:53;2.21;92.78
70336;SHT31;57756;47.408;18.940;2022-12-29T15:15:25;2.10;93.00
70336;SHT31;57756;47.408;18.940;2022-12-29T15:17:51;2.00;93.19
70336;SHT31;57756;47.408;18.940;2022-12-29T15:20:28;1.95;93.24
70336;SHT31;57756;47.408;18.940;2022-12-29T15:22:57;1.83;93.39
70336;SHT31;57756;47.408;18.940;2022-12-29T15:25:24;1.75;93.51
70336;SHT31;57756;47.408;18.940;2022-12-29T15:28:02;1.69;94.21
70336;SHT31;57756;47.408;18.940;2022-12-29T15:30:28;1.66;94.24
70336;SHT31;57756;47.408;18.940;2022-12-29T15:32:54;1.59;94.17
70336;SHT31;57756;47.408;18.940;2022-12-29T15:37:58;1.45;94.30
70336;SHT31;57756;47.408;18.940;2022-12-29T15:40:29;1.37;94.23
70336;SHT31;57756;47.408;18.940;2022-12-29T15:45:55;1.26;94.64
70336;SHT31;57756;47.408;18.940;2022-12-29T15:48:23;1.22;94.72
70336;SHT31;57756;47.408;18.940;2022-12-29T15:50:49;1.20;94.82
70336;SHT31;57756;47.408;18.940;2022-12-29T15:53:29;1.13;94.81
70336;SHT31;57756;47.408;18.940;2022-12-29T15:56:05;1.10;95.83
70336;SHT31;57756;47.408;18.940;2022-12-29T15:58:40;1.24;96.28
70336;SHT31;57756;47.408;18.940;2022-12-29T16:01:37;1.20;96.00
70336;SHT31;57756;47.408;18.940;2022-12-29T16:04:08;1.14;95.58
70336;SHT31;57756;47.408;18.940;2022-12-29T16:09:16;1.13;95.73
70336;SHT31;57756;47.408;18.940;2022-12-29T16:11:49;1.24;95.95
70336;SHT31;57756;47.408;18.940;2022-12-29T16:14:24;1.30;95.47
70336;SHT31;57756;47.408;18.940;2022-12-29T16:16:52;1.28;95.52
70336;SHT31;57756;47.408;18.940;2022-12-29T16:19:36;1.28;95.38
70336;SHT31;57756;47.408;18.940;2022-12-29T16:22:09;1.30;95.45
70336;SHT31;57756;47.408;18.940;2022-12-29T16:24:38;1.28;95.36
70336;SHT31;57756;47.408;18.940;2022-12-29T16:27:17;1.30;95.44
70336;SHT31;57756;47.408;18.940;2022-12-29T16:29:45;1.27;95.21
70336;SHT31;57756;47.408;18.940;2022-12-29T16:32:26;1.34;95.37
70336;SHT31;57756;47.408;18.940;2022-12-29T16:37:34;1.33;95.20
70336;SHT31;57756;47.408;18.940;2022-12-29T16:42:46;1.14;95.38
70336;SHT31;57756;47.408;18.940;2022-12-29T16:47:48;1.10;96.02
70336;SHT31;57756;47.408;18.940;2022-12-29T16:50:21;1.08;96.04
70336;SHT31;57756;47.408;18.940;2022-12-29T16:52:49;1.03;95.68
70336;SHT31;57756;47.408;18.940;2022-12-29T16:55:17;0.99;96.22
70336;SHT31;57756;47.408;18.940;2022-12-29T16:57:44;0.96;95.91
70336;SHT31;57756;47.408;18.940;2022-12-29T17:00:23;0.90;96.13
70336;SHT31;57756;47.408;18.940;2022-12-29T17:02:53;0.87;96.18
70336;SHT31;57756;47.408;18.940;2022-12-29T17:05:20;0.85;96.79
70336;SHT31;57756;47.408;18.940;2022-12-29T17:07:45;0.83;96.78
70336;SHT31;57756;47.408;18.940;2022-12-29T17:10:12;0.90;96.63
70336;SHT31;57756;47.408;18.940;2022-12-29T17:12:40;0.90;96.52
70336;SHT31;57756;47.408;18.940;2022-12-29T17:15:18;0.90;96.74
70336;SHT31;57756;47.408;18.940;2022-12-29T17:17:46;0.90;96.61
70336;SHT31;57756;47.408;18.940;2022-12-29T17:22:47;0.93;96.50
70336;SHT31;57756;47.408;18.940;2022-12-29T17:25:20;0.95;96.52
70336;SHT31;57756;47.408;18.940;2022-12-29T17:30:20;0.99;96.52
70336;SHT31;57756;47.408;18.940;2022-12-29T17:32:50;0.96;96.52
70336;SHT31;57756;47.408;18.940;2022-12-29T17:35:17;0.99;96.46
70336;SHT31;57756;47.408;18.940;2022-12-29T17:37:43;0.92;96.63
70336;SHT31;57756;47.408;18.940;2022-12-29T17:40:29;0.93;96.55
70336;SHT31;57756;47.408;18.940;2022-12-29T17:42:57;0.87;96.57
70336;SHT31;57756;47.408;18.940;2022-12-29T17:45:25;0.77;97.10
70336;SHT31;57756;47.408;18.940;2022-12-29T17:47:51;0.85;97.34
70336;SHT31;57756;47.408;18.940;2022-12-29T17:50:19;0.90;97.49
70336;SHT31;57756;47.408;18.940;2022-12-29T17:53:02;0.87;97.21
70336;SHT31;57756;47.408;18.940;2022-12-29T17:55:28;0.79;97.02
70336;SHT31;57756;47.408;18.940;2022-12-29T17:57:54;0.83;97.70
70336;SHT31;57756;47.408;18.940;2022-12-29T18:00:26;0.80;97.83
70336;SHT31;57756;47.408;18.940;2022-12-29T18:02:52;0.80;97.94
70336;SHT31;57756;47.408;18.940;2022-12-29T18:05:20;0.79;97.92
70336;SHT31;57756;47.408;18.940;2022-12-29T18:07:46;0.80;98.04
70336;SHT31;57756;47.408;18.940;2022-12-29T18:10:12;0.87;97.85
70336;SHT31;57756;47.408;18.940;2022-12-29T18:12:48;0.86;97.70
70336;SHT31;57756;47.408;18.940;2022-12-29T18:17:46;0.95;97.70
70336;SHT31;57756;47.408;18.940;2022-12-29T18:20:11;0.97;97.55
70336;SHT31;57756;47.408;18.940;2022-12-29T18:22:37;0.99;97.72
70336;SHT31;57756;47.408;18.940;2022-12-29T18:25:17;1.00;97.57
70336;SHT31;57756;47.408;18.940;2022-12-29T18:27:44;1.00;97.56
70336;SHT31;57756;47.408;18.940;2022-12-29T18:30:10;1.07;97.59
70336;SHT31;57756;47.408;18.940;2022-12-29T18:32:36;1.06;97.59